Time,TemperatureF,DewpointF,PressureIn,WindDirection,WindDirectionDegrees,WindSpeedMPH,WindSpeedGustMPH,Humidity,HourlyPrecipIn,Conditions,Clouds,dailyrainin,SoftwareType,DateUTC
2013-09-16 00:04:00,74.2,68.7,29.97,NNE,32,16.0,18.0,83,0.00,,,0.00,VWS V14.01,2013-09-16 10:04:00,
2013-09-16 00:10:00,74.1,69.0,29.97,NE,52,8.0,8.0,84,0.00,,,0.00,VWS V14.01,2013-09-16 10:10:00,
2013-09-16 00:15:00,74.1,69.3,29.97,NE,45,14.0,14.0,85,0.00,,,0.00,VWS V14.01,2013-09-16 10:15:00,
2013-09-16 00:20:00,74.1,69.3,29.97,ENE,57,8.0,11.0,85,0.00,,,0.00,VWS V14.01,2013-09-16 10:20:00,
2013-09-16 00:25:00,74.0,69.2,29.97,NE,37,11.0,14.0,85,0.00,,,0.00,VWS V14.01,2013-09-16 10:25:00,
2013-09-16 00:30:00,74.0,69.6,29.97,NNE,31,6.0,9.0,86,0.00,,,0.00,VWS V14.01,2013-09-16 10:30:00,
2013-09-16 00:35:00,74.0,69.6,29.97,NNE,26,8.0,12.0,86,0.00,,,0.00,VWS V14.01,2013-09-16 10:35:00,
2013-09-16 00:40:00,73.9,69.4,29.97,NE,55,14.0,14.0,86,0.00,,,0.00,VWS V14.01,2013-09-16 10:40:00,
2013-09-16 00:45:00,73.9,69.4,29.96,NE,51,7.0,9.0,86,0.00,,,0.00,VWS V14.01,2013-09-16 10:45:00,
2013-09-16 00:51:00,73.9,69.4,29.97,NNE,33,7.0,12.0,86,0.00,,,0.00,VWS V14.01,2013-09-16 10:51:00,
2013-09-16 00:56:00,73.9,69.4,29.97,NE,48,4.0,7.0,86,0.00,,,0.00,VWS V14.01,2013-09-16 10:56:00,
2013-09-16 01:01:00,73.9,69.4,29.96,NE,36,15.0,17.0,86,0.00,,,0.00,VWS V14.01,2013-09-16 11:01:00,
2013-09-16 01:06:00,73.9,69.4,29.96,ENE,59,6.0,7.0,86,0.00,,,0.00,VWS V14.01,2013-09-16 11:06:00,
2013-09-16 01:11:00,73.9,69.4,29.96,NNE,29,10.0,13.0,86,0.00,,,0.00,VWS V14.01,2013-09-16 11:11:00,
2013-09-16 01:16:00,74.0,69.6,29.96,NE,45,11.0,13.0,86,0.00,,,0.00,VWS V14.01,2013-09-16 11:16:00,
2013-09-16 01:21:00,73.8,69.3,29.95,ENE,59,9.0,11.0,86,0.00,,,0.00,VWS V14.01,2013-09-16 11:21:00,
2013-09-16 01:26:00,73.9,69.4,29.95,NE,36,15.0,15.0,86,0.00,,,0.00,VWS V14.01,2013-09-16 11:26:00,
2013-09-16 01:31:00,73.7,69.3,29.95,NE,56,13.0,13.0,86,0.00,,,0.00,VWS V14.01,2013-09-16 11:31:00,
2013-09-16 01:37:00,73.7,69.3,29.96,NE,54,12.0,12.0,86,0.00,,,0.00,VWS V14.01,2013-09-16 11:37:00,
2013-09-16 01:42:00,73.7,69.3,29.96,NE,38,9.0,10.0,86,0.00,,,0.00,VWS V14.01,2013-09-16 11:42:00,
2013-09-16 01:47:00,73.9,69.1,29.96,ENE,65,10.0,15.0,85,0.00,,,0.00,VWS V14.01,2013-09-16 11:47:00,
2013-09-16 01:52:00,73.8,69.0,29.97,NE,51,8.0,10.0,85,0.00,,,0.00,VWS V14.01,2013-09-16 11:52:00,
2013-09-16 01:57:00,73.7,68.6,29.97,ENE,59,7.0,11.0,84,0.00,,,0.00,VWS V14.01,2013-09-16 11:57:00,
2013-09-16 02:02:00,73.7,68.6,29.96,NNE,14,7.0,8.0,84,0.00,,,0.00,VWS V14.01,2013-09-16 12:02:00,
2013-09-16 02:07:00,73.7,68.9,29.96,NNE,28,6.0,6.0,85,0.00,,,0.00,VWS V14.01,2013-09-16 12:07:00,
2013-09-16 02:12:00,73.6,68.8,29.96,NE,50,6.0,6.0,85,0.00,,,0.00,VWS V14.01,2013-09-16 12:12:00,
2013-09-16 02:17:00,73.5,69.1,29.96,NE,41,4.0,4.0,86,0.00,,,0.00,VWS V14.01,2013-09-16 12:17:00,
2013-09-16 02:23:00,73.4,69.0,29.96,North,4,14.0,14.0,86,0.00,,,0.00,VWS V14.01,2013-09-16 12:23:00,
2013-09-16 02:28:00,73.4,68.6,29.96,NNE,32,11.0,16.0,85,0.00,,,0.00,VWS V14.01,2013-09-16 12:28:00,
2013-09-16 02:33:00,73.4,68.6,29.96,NE,40,7.0,8.0,85,0.00,,,0.00,VWS V14.01,2013-09-16 12:33:00,
2013-09-16 02:38:00,73.5,68.0,29.96,North,357,7.0,7.0,83,0.00,,,0.00,VWS V14.01,2013-09-16 12:38:00,
2013-09-16 02:43:00,73.6,68.1,29.96,North,9,11.0,14.0,83,0.00,,,0.00,VWS V14.01,2013-09-16 12:43:00,
2013-09-16 02:48:00,73.8,68.3,29.96,NNE,20,10.0,12.0,83,0.00,,,0.00,VWS V14.01,2013-09-16 12:48:00,
2013-09-16 02:53:00,73.7,68.6,29.95,NNE,26,7.0,13.0,84,0.00,,,0.00,VWS V14.01,2013-09-16 12:53:00,
2013-09-16 02:58:00,73.7,68.9,29.95,NNE,28,8.0,8.0,85,0.00,,,0.00,VWS V14.01,2013-09-16 12:58:00,
2013-09-16 03:04:00,73.6,68.8,29.96,NNE,24,4.0,6.0,85,0.00,,,0.00,VWS V14.01,2013-09-16 13:04:00,
2013-09-16 03:09:00,73.6,68.8,29.96,NNE,14,13.0,13.0,85,0.00,,,0.00,VWS V14.01,2013-09-16 13:09:00,
2013-09-16 03:14:00,73.5,68.7,29.96,NE,39,7.0,9.0,85,0.00,,,0.00,VWS V14.01,2013-09-16 13:14:00,
2013-09-16 03:19:00,73.4,68.6,29.96,NE,36,8.0,12.0,85,0.00,,,0.00,VWS V14.01,2013-09-16 13:19:00,
2013-09-16 03:24:00,73.3,68.5,29.96,NNE,24,7.0,7.0,85,0.00,,,0.00,VWS V14.01,2013-09-16 13:24:00,
2013-09-16 03:29:00,73.5,68.7,29.96,NE,45,8.0,10.0,85,0.00,,,0.00,VWS V14.01,2013-09-16 13:29:00,
2013-09-16 03:34:00,73.5,68.7,29.96,NNE,28,5.0,6.0,85,0.00,,,0.00,VWS V14.01,2013-09-16 13:34:00,
2013-09-16 03:39:00,73.6,68.8,29.95,North,9,9.0,10.0,85,0.00,,,0.00,VWS V14.01,2013-09-16 13:39:00,
2013-09-16 03:45:00,73.6,69.2,29.95,NNW,331,11.0,11.0,86,0.00,,,0.00,VWS V14.01,2013-09-16 13:45:00,
2013-09-16 03:50:00,73.7,69.3,29.95,NE,38,4.0,5.0,86,0.00,,,0.00,VWS V14.01,2013-09-16 13:50:00,
2013-09-16 03:55:00,73.7,69.3,29.95,NNE,16,11.0,11.0,86,0.00,,,0.00,VWS V14.01,2013-09-16 13:55:00,
2013-09-16 04:00:00,73.7,69.6,29.96,NNE,28,4.0,4.0,87,0.00,,,0.00,VWS V14.01,2013-09-16 14:00:00,
2013-09-16 04:05:00,73.6,69.5,29.96,ENE,58,8.0,10.0,87,0.00,,,0.00,VWS V14.01,2013-09-16 14:05:00,
2013-09-16 04:10:00,73.7,69.3,29.95,East,84,10.0,10.0,86,0.00,,,0.00,VWS V14.01,2013-09-16 14:10:00,
2013-09-16 04:15:00,73.7,69.3,29.95,NNE,18,7.0,7.0,86,0.00,,,0.00,VWS V14.01,2013-09-16 14:15:00,
2013-09-16 04:20:00,73.5,68.4,29.96,NE,40,6.0,6.0,84,0.00,,,0.00,VWS V14.01,2013-09-16 14:20:00,
2013-09-16 04:25:00,73.5,68.0,29.96,NE,54,2.0,4.0,83,0.00,,,0.00,VWS V14.01,2013-09-16 14:25:00,
2013-09-16 04:30:00,73.5,68.0,29.96,NNE,26,6.0,6.0,83,0.00,,,0.00,VWS V14.01,2013-09-16 14:30:00,
2013-09-16 04:35:00,73.5,68.4,29.97,NNE,25,5.0,8.0,84,0.00,,,0.00,VWS V14.01,2013-09-16 14:35:00,
2013-09-16 04:40:00,73.5,68.7,29.97,NE,48,5.0,6.0,85,0.00,,,0.00,VWS V14.01,2013-09-16 14:40:00,
2013-09-16 04:46:00,73.3,68.9,29.97,NNE,21,4.0,4.0,86,0.00,,,0.00,VWS V14.01,2013-09-16 14:46:00,
2013-09-16 04:51:00,73.3,68.9,29.97,NE,34,9.0,9.0,86,0.00,,,0.00,VWS V14.01,2013-09-16 14:51:00,
2013-09-16 04:56:00,73.3,69.2,29.97,NE,38,4.0,4.0,87,0.00,,,0.00,VWS V14.01,2013-09-16 14:56:00,
2013-09-16 05:01:00,73.3,69.2,29.97,NE,48,2.0,5.0,87,0.00,,,0.00,VWS V14.01,2013-09-16 15:01:00,
2013-09-16 05:06:00,73.3,69.5,29.97,NE,38,4.0,5.0,88,0.00,,,0.00,VWS V14.01,2013-09-16 15:06:00,
2013-09-16 05:11:00,73.4,69.6,29.97,NE,54,5.0,5.0,88,0.00,,,0.00,VWS V14.01,2013-09-16 15:11:00,
2013-09-16 05:16:00,73.4,69.6,29.98,NNE,20,4.0,5.0,88,0.00,,,0.00,VWS V14.01,2013-09-16 15:16:00,
2013-09-16 05:21:00,73.4,69.6,29.98,ENE,60,2.0,3.0,88,0.00,,,0.00,VWS V14.01,2013-09-16 15:21:00,
2013-09-16 05:26:00,73.3,69.5,29.98,NNE,28,4.0,5.0,88,0.00,,,0.00,VWS V14.01,2013-09-16 15:26:00,
2013-09-16 05:32:00,73.3,69.5,29.98,NNE,17,3.0,3.0,88,0.00,,,0.00,VWS V14.01,2013-09-16 15:32:00,
2013-09-16 05:37:00,73.2,69.8,29.98,NNE,19,5.0,7.0,89,0.00,,,0.00,VWS V14.01,2013-09-16 15:37:00,
2013-09-16 05:42:00,73.2,69.8,29.98,NNE,24,7.0,7.0,89,0.00,,,0.00,VWS V14.01,2013-09-16 15:42:00,
2013-09-16 05:47:00,73.3,69.5,29.98,NE,38,11.0,11.0,88,0.00,,,0.00,VWS V14.01,2013-09-16 15:47:00,
2013-09-16 05:52:00,73.3,69.5,29.99,NE,41,3.0,4.0,88,0.00,,,0.00,VWS V14.01,2013-09-16 15:52:00,
2013-09-16 05:57:00,73.3,69.5,29.99,NNE,20,6.0,11.0,88,0.00,,,0.00,VWS V14.01,2013-09-16 15:57:00,
2013-09-16 06:02:00,73.5,69.7,29.99,East,80,4.0,6.0,88,0.00,,,0.00,VWS V14.01,2013-09-16 16:02:00,
2013-09-16 06:07:00,73.5,69.7,29.99,NNE,33,6.0,6.0,88,0.00,,,0.00,VWS V14.01,2013-09-16 16:07:00,
2013-09-16 06:12:00,73.5,69.7,29.99,East,96,5.0,5.0,88,0.00,,,0.00,VWS V14.01,2013-09-16 16:12:00,
2013-09-16 06:18:00,73.5,69.7,29.99,NE,40,4.0,4.0,88,0.00,,,0.00,VWS V14.01,2013-09-16 16:18:00,
2013-09-16 06:23:00,73.5,69.7,30.00,NE,42,7.0,8.0,88,0.00,,,0.00,VWS V14.01,2013-09-16 16:23:00,
2013-09-16 06:28:00,73.5,70.1,29.99,NNE,21,8.0,8.0,89,0.00,,,0.00,VWS V14.01,2013-09-16 16:28:00,
2013-09-16 06:33:00,73.5,70.1,30.00,North,5,4.0,4.0,89,0.00,,,0.00,VWS V14.01,2013-09-16 16:33:00,
2013-09-16 06:38:00,73.6,70.2,30.00,NE,38,7.0,12.0,89,0.00,,,0.00,VWS V14.01,2013-09-16 16:38:00,
2013-09-16 06:43:00,73.8,70.0,30.00,NE,34,9.0,9.0,88,0.00,,,0.00,VWS V14.01,2013-09-16 16:43:00,
2013-09-16 06:48:00,74.0,70.2,30.00,NNE,14,5.0,6.0,88,0.00,,,0.00,VWS V14.01,2013-09-16 16:48:00,
2013-09-16 06:53:00,74.2,70.4,30.00,NE,42,5.0,7.0,88,0.00,,,0.00,VWS V14.01,2013-09-16 16:53:00,
2013-09-16 06:59:00,74.4,70.6,30.00,NNE,19,6.0,6.0,88,0.00,,,0.00,VWS V14.01,2013-09-16 16:59:00,
2013-09-16 07:04:00,74.7,70.6,30.00,NNE,24,5.0,6.0,87,0.00,,,0.00,VWS V14.01,2013-09-16 17:04:00,
2013-09-16 07:09:00,74.9,70.4,30.00,East,89,5.0,7.0,86,0.00,,,0.00,VWS V14.01,2013-09-16 17:09:00,
2013-09-16 07:14:00,75.1,70.6,30.00,ENE,57,10.0,10.0,86,0.00,,,0.00,VWS V14.01,2013-09-16 17:14:00,
2013-09-16 07:19:00,75.2,70.4,30.00,NE,37,4.0,4.0,85,0.00,,,0.00,VWS V14.01,2013-09-16 17:19:00,
2013-09-16 07:24:00,75.5,70.7,30.01,ENE,74,8.0,9.0,85,0.00,,,0.00,VWS V14.01,2013-09-16 17:24:00,
2013-09-16 07:29:00,75.8,71.3,30.01,ENE,71,9.0,9.0,86,0.00,,,0.00,VWS V14.01,2013-09-16 17:29:00,
2013-09-16 07:34:00,76.0,70.8,30.01,NE,44,8.0,9.0,84,0.00,,,0.00,VWS V14.01,2013-09-16 17:34:00,
2013-09-16 07:39:00,76.3,70.8,30.01,NE,50,6.0,9.0,83,0.00,,,0.00,VWS V14.01,2013-09-16 17:39:00,
2013-09-16 07:45:00,76.4,70.5,30.01,NE,47,11.0,12.0,82,0.00,,,0.00,VWS V14.01,2013-09-16 17:45:00,
2013-09-16 07:50:00,76.3,70.4,30.01,NE,37,9.0,9.0,82,0.00,,,0.00,VWS V14.01,2013-09-16 17:50:00,
2013-09-16 07:55:00,76.6,70.3,30.01,East,84,6.0,10.0,81,0.00,,,0.00,VWS V14.01,2013-09-16 17:55:00,
2013-09-16 08:00:00,76.7,70.4,30.02,East,101,9.0,10.0,81,0.00,,,0.00,VWS V14.01,2013-09-16 18:00:00,
2013-09-16 08:05:00,76.9,70.6,30.02,East,99,6.0,7.0,81,0.00,,,0.00,VWS V14.01,2013-09-16 18:05:00,
2013-09-16 08:10:00,77.1,70.8,30.02,ESE,114,13.0,13.0,81,0.00,,,0.00,VWS V14.01,2013-09-16 18:10:00,
2013-09-16 08:15:00,77.5,71.6,30.02,ESE,105,11.0,11.0,82,0.00,,,0.00,VWS V14.01,2013-09-16 18:15:00,
2013-09-16 08:21:00,77.1,69.3,30.02,ENE,73,6.0,7.0,77,0.00,,,0.00,VWS V14.01,2013-09-16 18:21:00,
2013-09-16 08:26:00,77.5,70.1,30.02,NE,50,10.0,10.0,78,0.00,,,0.00,VWS V14.01,2013-09-16 18:26:00,
2013-09-16 08:31:00,77.2,70.6,30.02,East,92,7.0,8.0,80,0.00,,,0.00,VWS V14.01,2013-09-16 18:31:00,
2013-09-16 08:36:00,77.7,71.4,30.02,ENE,61,12.0,12.0,81,0.00,,,0.00,VWS V14.01,2013-09-16 18:36:00,
2013-09-16 08:41:00,78.2,71.2,30.02,East,87,9.0,10.0,79,0.00,,,0.00,VWS V14.01,2013-09-16 18:41:00,
2013-09-16 08:46:00,78.4,71.3,30.02,ENE,57,10.0,15.0,79,0.00,,,0.00,VWS V14.01,2013-09-16 18:46:00,
2013-09-16 08:51:00,78.0,70.6,30.02,ENE,60,10.0,12.0,78,0.00,,,0.00,VWS V14.01,2013-09-16 18:51:00,
2013-09-16 08:56:00,77.9,70.9,30.02,NE,44,10.0,11.0,79,0.00,,,0.00,VWS V14.01,2013-09-16 18:56:00,
2013-09-16 09:01:00,78.1,71.1,30.02,East,99,14.0,14.0,79,0.00,,,0.00,VWS V14.01,2013-09-16 19:01:00,
2013-09-16 09:06:00,78.7,70.9,30.02,East,83,10.0,11.0,77,0.00,,,0.00,VWS V14.01,2013-09-16 19:06:00,
2013-09-16 09:12:00,78.8,70.2,30.02,ESE,107,15.0,18.0,75,0.00,,,0.00,VWS V14.01,2013-09-16 19:12:00,
2013-09-16 09:17:00,79.2,70.6,30.02,ESE,106,10.0,15.0,75,0.00,,,0.00,VWS V14.01,2013-09-16 19:17:00,
2013-09-16 09:22:00,78.9,70.7,30.02,East,90,16.0,16.0,76,0.00,,,0.00,VWS V14.01,2013-09-16 19:22:00,
2013-09-16 09:27:00,78.8,70.6,30.02,East,82,9.0,14.0,76,0.00,,,0.00,VWS V14.01,2013-09-16 19:27:00,
2013-09-16 09:32:00,78.9,70.7,30.02,ENE,59,10.0,13.0,76,0.00,,,0.00,VWS V14.01,2013-09-16 19:32:00,
2013-09-16 09:37:00,79.0,70.4,30.03,ENE,76,13.0,13.0,75,0.00,,,0.00,VWS V14.01,2013-09-16 19:37:00,
2013-09-16 09:42:00,79.1,70.5,30.02,ESE,107,13.0,13.0,75,0.00,,,0.00,VWS V14.01,2013-09-16 19:42:00,
2013-09-16 09:47:00,79.6,70.2,30.03,East,100,12.0,17.0,73,0.00,,,0.00,VWS V14.01,2013-09-16 19:47:00,
2013-09-16 09:53:00,79.3,71.1,30.03,NE,34,14.0,15.0,76,0.00,,,0.00,VWS V14.01,2013-09-16 19:53:00,
2013-09-16 09:58:00,79.1,70.5,30.02,East,93,11.0,11.0,75,0.00,,,0.00,VWS V14.01,2013-09-16 19:58:00,
2013-09-16 10:03:00,79.3,70.3,30.03,NE,41,20.0,20.0,74,0.00,,,0.00,VWS V14.01,2013-09-16 20:03:00,
2013-09-16 10:08:00,79.2,70.6,30.03,ENE,59,11.0,12.0,75,0.00,,,0.00,VWS V14.01,2013-09-16 20:08:00,
2013-09-16 10:13:00,79.9,70.9,30.02,East,81,11.0,20.0,74,0.00,,,0.00,VWS V14.01,2013-09-16 20:13:00,
2013-09-16 10:18:00,79.7,70.7,30.02,ENE,68,16.0,16.0,74,0.00,,,0.00,VWS V14.01,2013-09-16 20:18:00,
2013-09-16 10:23:00,80.1,71.1,30.03,East,79,8.0,17.0,74,0.00,,,0.00,VWS V14.01,2013-09-16 20:23:00,
2013-09-16 10:28:00,80.1,71.5,30.02,ENE,65,18.0,19.0,75,0.00,,,0.00,VWS V14.01,2013-09-16 20:28:00,
2013-09-16 10:34:00,80.3,71.7,30.02,ESE,107,14.0,14.0,75,0.00,,,0.00,VWS V14.01,2013-09-16 20:34:00,
2013-09-16 10:39:00,80.3,71.7,30.02,East,81,16.0,16.0,75,0.00,,,0.00,VWS V14.01,2013-09-16 20:39:00,
2013-09-16 10:44:00,80.0,71.0,30.03,ESE,106,14.0,16.0,74,0.00,,,0.00,VWS V14.01,2013-09-16 20:44:00,
2013-09-16 10:49:00,80.0,70.6,30.02,ESE,114,21.0,21.0,73,0.00,,,0.00,VWS V14.01,2013-09-16 20:49:00,
2013-09-16 10:54:00,79.6,71.4,30.02,ENE,72,13.0,21.0,76,0.00,,,0.00,VWS V14.01,2013-09-16 20:54:00,
2013-09-16 10:59:00,80.1,71.9,30.02,NE,53,21.0,23.0,76,0.00,,,0.00,VWS V14.01,2013-09-16 20:59:00,
2013-09-16 11:04:00,80.2,70.4,30.02,ENE,57,19.0,20.0,72,0.00,,,0.00,VWS V14.01,2013-09-16 21:04:00,
2013-09-16 11:09:00,80.3,70.9,30.02,East,89,17.0,21.0,73,0.00,,,0.00,VWS V14.01,2013-09-16 21:09:00,
2013-09-16 11:14:00,80.1,71.5,30.02,NE,52,17.0,18.0,75,0.00,,,0.00,VWS V14.01,2013-09-16 21:14:00,
2013-09-16 11:20:00,79.5,71.3,30.01,ENE,75,18.0,26.0,76,0.00,,,0.00,VWS V14.01,2013-09-16 21:20:00,
2013-09-16 11:25:00,79.7,71.5,30.02,ENE,76,19.0,25.0,76,0.00,,,0.00,VWS V14.01,2013-09-16 21:25:00,
2013-09-16 11:30:00,79.4,71.2,30.02,ENE,71,19.0,19.0,76,0.00,,,0.00,VWS V14.01,2013-09-16 21:30:00,
2013-09-16 11:35:00,80.1,71.5,30.01,NE,47,12.0,14.0,75,0.00,,,0.00,VWS V14.01,2013-09-16 21:35:00,
2013-09-16 11:40:00,79.9,70.5,30.01,ENE,68,16.0,21.0,73,0.00,,,0.00,VWS V14.01,2013-09-16 21:40:00,
2013-09-16 11:45:00,80.1,70.3,30.01,East,80,19.0,20.0,72,0.00,,,0.00,VWS V14.01,2013-09-16 21:45:00,
2013-09-16 11:50:00,79.9,70.1,30.01,ESE,112,19.0,23.0,72,0.00,,,0.00,VWS V14.01,2013-09-16 21:50:00,
2013-09-16 11:55:00,79.4,70.0,30.01,ENE,64,20.0,20.0,73,0.00,,,0.00,VWS V14.01,2013-09-16 21:55:00,
2013-09-16 12:01:00,79.4,70.8,30.01,ENE,66,25.0,26.0,75,0.00,,,0.00,VWS V14.01,2013-09-16 22:01:00,
2013-09-16 12:06:00,79.4,70.0,30.01,East,99,19.0,21.0,73,0.00,,,0.00,VWS V14.01,2013-09-16 22:06:00,
2013-09-16 12:11:00,79.7,70.3,30.01,ESE,107,23.0,23.0,73,0.00,,,0.00,VWS V14.01,2013-09-16 22:11:00,
2013-09-16 12:16:00,80.3,68.8,30.01,East,88,20.0,23.0,68,0.00,,,0.00,VWS V14.01,2013-09-16 22:16:00,
2013-09-16 12:21:00,80.5,71.5,30.00,East,80,12.0,20.0,74,0.00,,,0.00,VWS V14.01,2013-09-16 22:21:00,
2013-09-16 12:26:00,79.8,71.6,30.00,ENE,58,11.0,20.0,76,0.00,,,0.00,VWS V14.01,2013-09-16 22:26:00,
2013-09-16 12:31:00,80.3,71.3,30.00,NE,54,15.0,18.0,74,0.00,,,0.00,VWS V14.01,2013-09-16 22:31:00,
2013-09-16 12:36:00,79.8,70.8,30.00,ENE,73,21.0,21.0,74,0.00,,,0.00,VWS V14.01,2013-09-16 22:36:00,
2013-09-16 12:41:00,79.4,71.2,30.00,ENE,59,18.0,19.0,76,0.00,,,0.00,VWS V14.01,2013-09-16 22:41:00,
2013-09-16 12:47:00,79.5,71.3,30.00,ESE,104,20.0,20.0,76,0.00,,,0.00,VWS V14.01,2013-09-16 22:47:00,
2013-09-16 12:52:00,79.4,71.2,29.99,ENE,65,20.0,21.0,76,0.00,,,0.00,VWS V14.01,2013-09-16 22:52:00,
2013-09-16 12:57:00,79.4,71.2,29.99,ENE,78,17.0,20.0,76,0.00,,,0.00,VWS V14.01,2013-09-16 22:57:00,
2013-09-16 13:02:00,79.3,71.1,29.99,NE,50,17.0,22.0,76,0.00,,,0.00,VWS V14.01,2013-09-16 23:02:00,
2013-09-16 13:07:00,79.4,71.2,29.99,ENE,71,16.0,16.0,76,0.00,,,0.00,VWS V14.01,2013-09-16 23:07:00,
2013-09-16 13:12:00,79.7,71.5,29.99,ENE,78,12.0,18.0,76,0.00,,,0.00,VWS V14.01,2013-09-16 23:12:00,
2013-09-16 13:17:00,80.1,71.1,29.98,East,93,13.0,13.0,74,0.00,,,0.00,VWS V14.01,2013-09-16 23:17:00,
2013-09-16 13:22:00,79.4,71.2,29.98,NE,42,15.0,16.0,76,0.00,,,0.00,VWS V14.01,2013-09-16 23:22:00,
2013-09-16 13:27:00,80.1,71.5,29.98,NE,42,21.0,21.0,75,0.00,,,0.00,VWS V14.01,2013-09-16 23:27:00,
2013-09-16 13:32:00,79.0,70.8,29.98,ENE,69,21.0,21.0,76,0.00,,,0.00,VWS V14.01,2013-09-16 23:32:00,
2013-09-16 13:37:00,79.3,69.5,29.97,ESE,105,14.0,17.0,72,0.00,,,0.00,VWS V14.01,2013-09-16 23:37:00,
2013-09-16 13:43:00,78.8,70.6,29.98,ESE,103,21.0,26.0,76,0.00,,,0.00,VWS V14.01,2013-09-16 23:43:00,
2013-09-16 13:48:00,78.9,69.5,29.97,NE,54,20.0,24.0,73,0.00,,,0.00,VWS V14.01,2013-09-16 23:48:00,
2013-09-16 13:53:00,79.7,71.1,29.97,East,91,9.0,16.0,75,0.00,,,0.00,VWS V14.01,2013-09-16 23:53:00,
2013-09-16 13:58:00,79.2,69.8,29.97,ENE,71,16.0,17.0,73,0.00,,,0.00,VWS V14.01,2013-09-16 23:58:00,
2013-09-16 14:03:00,79.0,69.6,29.97,ESE,106,16.0,16.0,73,0.00,,,0.00,VWS V14.01,2013-09-17 00:03:00,
2013-09-16 14:08:00,79.6,69.4,29.96,ENE,71,8.0,9.0,71,0.00,,,0.00,VWS V14.01,2013-09-17 00:08:00,
2013-09-16 14:13:00,79.3,69.5,29.97,ENE,67,17.0,21.0,72,0.00,,,0.00,VWS V14.01,2013-09-17 00:13:00,
2013-09-16 14:18:00,79.3,69.9,29.97,NE,52,18.0,18.0,73,0.00,,,0.00,VWS V14.01,2013-09-17 00:18:00,
2013-09-16 14:24:00,79.0,70.0,29.97,East,97,11.0,16.0,74,0.00,,,0.00,VWS V14.01,2013-09-17 00:24:00,
2013-09-16 14:29:00,79.2,71.0,29.97,East,90,15.0,23.0,76,0.00,,,0.00,VWS V14.01,2013-09-17 00:29:00,
2013-09-16 14:34:00,78.8,70.6,29.97,NE,54,18.0,18.0,76,0.00,,,0.00,VWS V14.01,2013-09-17 00:34:00,
2013-09-16 14:39:00,78.3,70.9,29.96,NE,54,16.0,16.0,78,0.00,,,0.00,VWS V14.01,2013-09-17 00:39:00,
2013-09-16 14:44:00,78.5,71.1,29.96,NE,42,19.0,19.0,78,0.00,,,0.00,VWS V14.01,2013-09-17 00:44:00,
2013-09-16 14:49:00,78.3,71.3,29.96,East,101,21.0,21.0,79,0.00,,,0.00,VWS V14.01,2013-09-17 00:49:00,
2013-09-16 14:54:00,78.3,70.9,29.96,NE,44,18.0,18.0,78,0.00,,,0.00,VWS V14.01,2013-09-17 00:54:00,
2013-09-16 14:59:00,77.9,70.9,29.96,ENE,60,11.0,14.0,79,0.00,,,0.00,VWS V14.01,2013-09-17 00:59:00,
2013-09-16 15:05:00,78.0,71.3,29.96,ENE,69,15.0,16.0,80,0.00,,,0.00,VWS V14.01,2013-09-17 01:05:00,
2013-09-16 15:10:00,78.1,71.4,29.96,NE,52,14.0,14.0,80,0.00,,,0.00,VWS V14.01,2013-09-17 01:10:00,
2013-09-16 15:15:00,78.1,71.1,29.96,ENE,72,15.0,17.0,79,0.00,,,0.00,VWS V14.01,2013-09-17 01:15:00,
2013-09-16 15:20:00,77.9,69.7,29.96,East,99,16.0,16.0,76,0.00,,,0.00,VWS V14.01,2013-09-17 01:20:00,
2013-09-16 15:25:00,77.6,69.8,29.96,ESE,106,13.0,18.0,77,0.00,,,0.00,VWS V14.01,2013-09-17 01:25:00,
2013-09-16 15:30:00,77.4,70.4,29.96,NE,54,9.0,12.0,79,0.00,,,0.00,VWS V14.01,2013-09-17 01:30:00,
2013-09-16 15:35:00,77.6,69.8,29.96,NE,56,16.0,16.0,77,0.00,,,0.00,VWS V14.01,2013-09-17 01:35:00,
2013-09-16 15:40:00,78.0,70.6,29.97,NE,47,9.0,14.0,78,0.00,,,0.00,VWS V14.01,2013-09-17 01:40:00,
2013-09-16 15:45:00,77.9,70.1,29.97,NE,52,10.0,13.0,77,0.00,,,0.00,VWS V14.01,2013-09-17 01:45:00,
2013-09-16 15:51:00,77.7,69.5,29.96,ENE,65,14.0,14.0,76,0.00,,,0.00,VWS V14.01,2013-09-17 01:51:00,
2013-09-16 15:56:00,77.7,69.9,29.97,ENE,63,8.0,10.0,77,0.00,,,0.00,VWS V14.01,2013-09-17 01:56:00,
2013-09-16 16:01:00,77.6,69.8,29.96,NE,53,15.0,15.0,77,0.00,,,0.00,VWS V14.01,2013-09-17 02:01:00,
2013-09-16 16:06:00,77.2,69.8,29.96,NNE,26,9.0,14.0,78,0.00,,,0.00,VWS V14.01,2013-09-17 02:06:00,
2013-09-16 16:11:00,77.3,69.9,29.96,ENE,58,12.0,15.0,78,0.00,,,0.00,VWS V14.01,2013-09-17 02:11:00,
2013-09-16 16:16:00,77.1,70.1,29.97,ENE,65,19.0,19.0,79,0.00,,,0.00,VWS V14.01,2013-09-17 02:16:00,
2013-09-16 16:21:00,76.9,69.9,29.97,NE,49,7.0,10.0,79,0.00,,,0.00,VWS V14.01,2013-09-17 02:21:00,
2013-09-16 16:26:00,77.0,70.0,29.97,NE,38,10.0,17.0,79,0.00,,,0.00,VWS V14.01,2013-09-17 02:26:00,
2013-09-16 16:31:00,76.6,70.0,29.97,East,99,15.0,20.0,80,0.00,,,0.00,VWS V14.01,2013-09-17 02:31:00,
2013-09-16 16:36:00,76.6,70.3,29.97,NE,51,10.0,13.0,81,0.00,,,0.00,VWS V14.01,2013-09-17 02:36:00,
2013-09-16 16:41:00,76.4,69.8,29.97,NE,54,9.0,15.0,80,0.00,,,0.00,VWS V14.01,2013-09-17 02:41:00,
2013-09-16 16:47:00,76.4,69.4,29.97,East,100,22.0,23.0,79,0.00,,,0.00,VWS V14.01,2013-09-17 02:47:00,
2013-09-16 16:52:00,76.3,69.7,29.97,ENE,61,17.0,17.0,80,0.00,,,0.00,VWS V14.01,2013-09-17 02:52:00,
2013-09-16 16:57:00,76.3,69.7,29.97,NE,48,8.0,20.0,80,0.00,,,0.00,VWS V14.01,2013-09-17 02:57:00,
2013-09-16 17:02:00,76.1,69.8,29.97,East,86,15.0,15.0,81,0.00,,,0.00,VWS V14.01,2013-09-17 03:02:00,
2013-09-16 17:07:00,76.1,69.8,29.97,NE,45,10.0,12.0,81,0.00,,,0.00,VWS V14.01,2013-09-17 03:07:00,
2013-09-16 17:12:00,76.0,69.8,29.98,East,88,10.0,10.0,81,0.00,,,0.00,VWS V14.01,2013-09-17 03:12:00,
2013-09-16 17:17:00,76.1,69.8,29.98,ENE,64,13.0,13.0,81,0.00,,,0.00,VWS V14.01,2013-09-17 03:17:00,
2013-09-16 17:22:00,76.2,69.6,29.98,East,94,7.0,9.0,80,0.00,,,0.00,VWS V14.01,2013-09-17 03:22:00,
2013-09-16 17:28:00,76.3,69.3,29.98,East,89,9.0,11.0,79,0.00,,,0.00,VWS V14.01,2013-09-17 03:28:00,
2013-09-16 17:33:00,76.4,69.0,29.98,ENE,77,8.0,14.0,78,0.00,,,0.00,VWS V14.01,2013-09-17 03:33:00,
2013-09-16 17:38:00,76.4,69.4,29.98,East,85,7.0,10.0,79,0.00,,,0.00,VWS V14.01,2013-09-17 03:38:00,
2013-09-16 17:43:00,76.4,69.4,29.98,ESE,116,18.0,18.0,79,0.00,,,0.00,VWS V14.01,2013-09-17 03:43:00,
2013-09-16 17:48:00,76.4,69.8,29.98,East,101,10.0,10.0,80,0.00,,,0.00,VWS V14.01,2013-09-17 03:48:00,
2013-09-16 17:53:00,76.3,70.1,29.99,ENE,67,11.0,14.0,81,0.00,,,0.00,VWS V14.01,2013-09-17 03:53:00,
2013-09-16 17:58:00,75.9,69.3,29.99,ENE,58,9.0,11.0,80,0.00,,,0.00,VWS V14.01,2013-09-17 03:58:00,
2013-09-16 18:01:00,75.7,69.5,29.99,ENE,78,10.0,11.0,81,0.00,,,0.00,VWS V14.01,2013-09-17 04:01:00,
2013-09-16 18:07:00,75.4,69.9,29.99,NE,40,12.0,12.0,83,0.00,,,0.00,VWS V14.01,2013-09-17 04:07:00,
2013-09-16 18:12:00,75.3,69.8,29.99,East,81,9.0,9.0,83,0.00,,,0.00,VWS V14.01,2013-09-17 04:12:00,
2013-09-16 18:17:00,75.1,69.9,29.99,ENE,75,4.0,5.0,84,0.00,,,0.00,VWS V14.01,2013-09-17 04:17:00,
2013-09-16 18:22:00,75.1,69.9,29.99,East,95,7.0,7.0,84,0.00,,,0.00,VWS V14.01,2013-09-17 04:22:00,
2013-09-16 18:27:00,75.1,70.3,30.00,ENE,72,7.0,11.0,85,0.00,,,0.00,VWS V14.01,2013-09-17 04:27:00,
2013-09-16 18:32:00,74.9,70.1,30.00,East,97,9.0,10.0,85,0.00,,,0.00,VWS V14.01,2013-09-17 04:32:00,
2013-09-16 18:37:00,74.6,69.8,30.00,ENE,69,6.0,8.0,85,0.00,,,0.00,VWS V14.01,2013-09-17 04:37:00,
2013-09-16 18:42:00,74.4,69.3,30.00,NE,50,7.0,10.0,84,0.00,,,0.00,VWS V14.01,2013-09-17 04:42:00,
2013-09-16 18:48:00,74.4,69.6,30.00,NE,47,7.0,7.0,85,0.00,,,0.00,VWS V14.01,2013-09-17 04:48:00,
2013-09-16 18:53:00,74.2,69.8,30.00,NNE,31,5.0,8.0,86,0.00,,,0.00,VWS V14.01,2013-09-17 04:53:00,
2013-09-16 18:58:00,74.2,70.1,30.00,NNE,23,8.0,9.0,87,0.00,,,0.00,VWS V14.01,2013-09-17 04:58:00,
2013-09-16 19:03:00,74.3,70.2,30.00,NNE,27,8.0,11.0,87,0.00,,,0.00,VWS V14.01,2013-09-17 05:03:00,
2013-09-16 19:08:00,74.4,69.9,30.00,NE,36,5.0,6.0,86,0.00,,,0.00,VWS V14.01,2013-09-17 05:08:00,
2013-09-16 19:13:00,74.4,69.9,30.00,NNE,16,5.0,7.0,86,0.00,,,0.00,VWS V14.01,2013-09-17 05:13:00,
2013-09-16 19:18:00,74.3,69.8,30.00,ENE,72,6.0,10.0,86,0.00,,,0.00,VWS V14.01,2013-09-17 05:18:00,
2013-09-16 19:23:00,74.2,69.4,30.01,ESE,105,7.0,8.0,85,0.00,,,0.00,VWS V14.01,2013-09-17 05:23:00,
2013-09-16 19:28:00,74.1,67.9,30.01,ENE,58,7.0,8.0,81,0.00,,,0.00,VWS V14.01,2013-09-17 05:28:00,
2013-09-16 19:33:00,74.1,67.2,30.01,East,91,10.0,10.0,79,0.00,,,0.00,VWS V14.01,2013-09-17 05:33:00,
2013-09-16 19:39:00,73.9,67.0,30.01,ENE,74,4.0,5.0,79,0.00,,,0.00,VWS V14.01,2013-09-17 05:39:00,
2013-09-16 19:44:00,74.1,67.2,30.02,ENE,66,7.0,7.0,79,0.00,,,0.00,VWS V14.01,2013-09-17 05:44:00,
2013-09-16 19:49:00,74.1,67.9,30.02,NNE,23,6.0,7.0,81,0.00,,,0.00,VWS V14.01,2013-09-17 05:49:00,
2013-09-16 19:54:00,74.2,68.7,30.02,North,353,13.0,13.0,83,0.00,,,0.00,VWS V14.01,2013-09-17 05:54:00,
2013-09-16 19:59:00,74.4,69.3,30.02,NE,54,8.0,8.0,84,0.00,,,0.00,VWS V14.01,2013-09-17 05:59:00,
2013-09-16 20:04:00,74.5,69.7,30.02,NNE,29,4.0,5.0,85,0.00,,,0.00,VWS V14.01,2013-09-17 06:04:00,
2013-09-16 20:09:00,74.6,69.8,30.02,NE,47,6.0,7.0,85,0.00,,,0.00,VWS V14.01,2013-09-17 06:09:00,
2013-09-16 20:14:00,74.6,69.8,30.03,NE,54,3.0,3.0,85,0.00,,,0.00,VWS V14.01,2013-09-17 06:14:00,
2013-09-16 20:19:00,74.5,69.7,30.03,NNE,28,5.0,5.0,85,0.00,,,0.00,VWS V14.01,2013-09-17 06:19:00,
2013-09-16 20:25:00,74.2,68.7,30.03,ENE,68,7.0,7.0,83,0.00,,,0.00,VWS V14.01,2013-09-17 06:25:00,
2013-09-16 20:30:00,73.7,67.9,30.04,ESE,102,9.0,9.0,82,0.00,,,0.00,VWS V14.01,2013-09-17 06:30:00,
2013-09-16 20:35:00,73.8,68.0,30.03,NE,38,9.0,10.0,82,0.00,,,0.00,VWS V14.01,2013-09-17 06:35:00,
2013-09-16 20:40:00,74.0,68.2,30.04,NE,55,5.0,6.0,82,0.00,,,0.00,VWS V14.01,2013-09-17 06:40:00,
2013-09-16 20:45:00,74.1,68.6,30.04,NE,40,5.0,6.0,83,0.00,,,0.00,VWS V14.01,2013-09-17 06:45:00,
2013-09-16 20:50:00,74.2,69.1,30.04,NE,50,10.0,10.0,84,0.00,,,0.00,VWS V14.01,2013-09-17 06:50:00,
2013-09-16 20:55:00,74.4,69.3,30.04,NE,35,6.0,11.0,84,0.00,,,0.00,VWS V14.01,2013-09-17 06:55:00,
2013-09-16 21:00:00,74.4,69.3,30.04,ENE,61,6.0,6.0,84,0.00,,,0.00,VWS V14.01,2013-09-17 07:00:00,
2013-09-16 21:05:00,74.4,69.6,30.05,NE,56,7.0,7.0,85,0.00,,,0.00,VWS V14.01,2013-09-17 07:05:00,
2013-09-16 21:10:00,74.2,69.1,30.05,ENE,68,9.0,15.0,84,0.00,,,0.00,VWS V14.01,2013-09-17 07:10:00,
2013-09-16 21:16:00,73.8,69.3,30.05,ENE,78,7.0,7.0,86,0.00,,,0.00,VWS V14.01,2013-09-17 07:16:00,
2013-09-16 21:21:00,72.9,69.1,30.05,NE,50,3.0,4.0,88,0.01,,,0.01,VWS V14.01,2013-09-17 07:21:00,
2013-09-16 21:26:00,72.2,69.1,30.05,North,5,7.0,7.0,90,0.01,,,0.01,VWS V14.01,2013-09-17 07:26:00,
2013-09-16 21:31:00,72.0,69.2,30.05,NNE,15,4.0,7.0,91,0.01,,,0.01,VWS V14.01,2013-09-17 07:31:00,
2013-09-16 21:36:00,72.2,69.1,30.05,NNW,347,7.0,8.0,90,0.01,,,0.01,VWS V14.01,2013-09-17 07:36:00,
2013-09-16 21:41:00,72.3,68.9,30.05,North,7,13.0,16.0,89,0.01,,,0.01,VWS V14.01,2013-09-17 07:41:00,
2013-09-16 21:46:00,72.5,68.4,30.05,NNW,331,12.0,12.0,87,0.01,,,0.01,VWS V14.01,2013-09-17 07:46:00,
2013-09-16 21:51:00,72.7,68.3,30.05,North,350,6.0,6.0,86,0.01,,,0.01,VWS V14.01,2013-09-17 07:51:00,
2013-09-16 21:56:00,72.6,68.2,30.05,NE,37,5.0,5.0,86,0.01,,,0.01,VWS V14.01,2013-09-17 07:56:00,
2013-09-16 22:01:00,72.6,68.2,30.05,NNE,13,10.0,13.0,86,0.01,,,0.01,VWS V14.01,2013-09-17 08:01:00,
2013-09-16 22:06:00,72.7,68.3,30.05,NNE,22,5.0,7.0,86,0.01,,,0.01,VWS V14.01,2013-09-17 08:06:00,
2013-09-16 22:11:00,72.8,68.4,30.05,NE,38,2.0,2.0,86,0.01,,,0.01,VWS V14.01,2013-09-17 08:11:00,
2013-09-16 22:16:00,72.9,68.1,30.05,NE,49,6.0,6.0,85,0.01,,,0.01,VWS V14.01,2013-09-17 08:16:00,
2013-09-16 22:21:00,72.9,68.5,30.05,NNE,26,6.0,6.0,86,0.00,,,0.01,VWS V14.01,2013-09-17 08:21:00,
2013-09-16 22:26:00,72.9,68.5,30.05,NE,49,9.0,9.0,86,0.00,,,0.01,VWS V14.01,2013-09-17 08:26:00,
2013-09-16 22:31:00,73.0,68.2,30.05,North,356,5.0,5.0,85,0.00,,,0.01,VWS V14.01,2013-09-17 08:31:00,
2013-09-16 22:36:00,73.3,68.5,30.05,NNE,14,3.0,5.0,85,0.00,,,0.01,VWS V14.01,2013-09-17 08:36:00,
2013-09-16 22:41:00,73.5,68.7,30.05,North,1,3.0,3.0,85,0.00,,,0.01,VWS V14.01,2013-09-17 08:41:00,
2013-09-16 22:46:00,73.3,68.9,30.05,NE,36,3.0,3.0,86,0.00,,,0.01,VWS V14.01,2013-09-17 08:46:00,
2013-09-16 22:51:00,73.1,68.7,30.05,NNE,33,3.0,5.0,86,0.00,,,0.01,VWS V14.01,2013-09-17 08:51:00,
2013-09-16 22:56:00,72.9,68.8,30.05,NNE,29,5.0,5.0,87,0.00,,,0.01,VWS V14.01,2013-09-17 08:56:00,
2013-09-16 23:01:00,72.8,68.7,30.04,NNE,28,5.0,5.0,87,0.00,,,0.01,VWS V14.01,2013-09-17 09:01:00,
2013-09-16 23:06:00,72.8,68.7,30.04,North,6,3.0,5.0,87,0.00,,,0.01,VWS V14.01,2013-09-17 09:06:00,
2013-09-16 23:11:00,72.9,68.5,30.04,North,5,8.0,8.0,86,0.00,,,0.01,VWS V14.01,2013-09-17 09:11:00,
2013-09-16 23:16:00,73.1,68.0,30.04,NE,54,8.0,9.0,84,0.00,,,0.01,VWS V14.01,2013-09-17 09:16:00,
2013-09-16 23:21:00,73.4,67.6,30.04,NNE,22,10.0,12.0,82,0.00,,,0.01,VWS V14.01,2013-09-17 09:21:00,
2013-09-16 23:26:00,73.6,67.8,30.03,NNE,22,4.0,4.0,82,0.00,,,0.01,VWS V14.01,2013-09-17 09:26:00,
2013-09-16 23:31:00,73.6,68.5,30.04,East,82,5.0,6.0,84,0.00,,,0.01,VWS V14.01,2013-09-17 09:31:00,
2013-09-16 23:36:00,73.8,68.7,30.04,NNE,25,7.0,9.0,84,0.00,,,0.01,VWS V14.01,2013-09-17 09:36:00,
2013-09-16 23:41:00,73.7,68.6,30.04,ENE,64,11.0,11.0,84,0.00,,,0.01,VWS V14.01,2013-09-17 09:41:00,
2013-09-16 23:46:00,73.6,68.8,30.04,ENE,57,5.0,7.0,85,0.00,,,0.01,VWS V14.01,2013-09-17 09:46:00,
2013-09-16 23:51:00,73.6,69.2,30.04,ESE,115,7.0,8.0,86,0.00,,,0.01,VWS V14.01,2013-09-17 09:51:00,
2013-09-16 23:57:00,73.3,68.9,30.04,NE,46,14.0,20.0,86,0.01,,,0.02,VWS V14.01,2013-09-17 09:57:00,